createdAt,value
2022-11-28T00:09:44.389Z,931.5
2022-11-28T00:14:54.322Z,931.6
2022-11-28T00:25:25.376Z,931.4
2022-11-28T00:30:37.238Z,931.2
2022-11-28T00:35:54.755Z,931
2022-11-28T00:57:01.760Z,930.8
2022-11-28T01:07:36.139Z,931
2022-11-28T01:18:08.129Z,930.9
2022-11-28T01:28:41.193Z,930.7
2022-11-28T01:33:53.148Z,930.9
2022-11-28T01:39:04.101Z,931.5
2022-11-28T01:44:20.624Z,931.5
2022-11-28T01:49:31.932Z,931.2
2022-11-28T01:54:47.696Z,931.2
2022-11-28T02:00:01.435Z,931.4
2022-11-28T02:05:11.497Z,931
2022-11-28T02:10:24.355Z,930.8
2022-11-28T02:15:35.996Z,930.4
2022-11-28T02:20:48.005Z,930.2
2022-11-28T02:31:19.663Z,930
2022-11-28T02:36:30.726Z,930.2
2022-11-28T02:52:24.277Z,929.9
2022-11-28T02:57:34.940Z,929.7
2022-11-28T03:13:30.309Z,929.8
2022-11-28T03:18:41.041Z,930
2022-11-28T03:23:53.237Z,930.2
2022-11-28T03:45:09.824Z,930.3
2022-11-28T03:55:42.501Z,930.8
2022-11-28T04:00:58.301Z,931
2022-11-28T04:16:54.753Z,930.7
2022-11-28T04:27:22.698Z,930.5
2022-11-28T04:48:19.637Z,929.9
2022-11-28T04:58:50.550Z,930.1
2022-11-28T05:31:12.097Z,929.5
2022-11-28T05:47:23.720Z,929.6
2022-11-28T05:57:55.955Z,929.8
2022-11-28T06:03:09.400Z,929.5
2022-11-28T06:24:44.041Z,929.4
2022-11-28T06:35:19.274Z,929.1
2022-11-28T07:12:21.600Z,929.1
2022-11-28T07:17:31.757Z,929
2022-11-28T07:22:48.213Z,929
2022-11-28T07:33:19.460Z,929.2
2022-11-28T07:38:30.745Z,929
2022-11-28T07:43:46.772Z,929
2022-11-28T07:48:57.234Z,929.2
2022-11-28T07:54:12.787Z,929.2
2022-11-28T07:59:24.375Z,929.4
2022-11-28T08:15:16.680Z,929.6
2022-11-28T08:20:32.880Z,929.6
2022-11-28T08:25:47.832Z,929.6
2022-11-28T08:31:11.729Z,929.6
2022-11-28T08:36:16.002Z,929.6
2022-11-28T08:57:33.244Z,929.5
2022-11-28T09:02:49.973Z,929.5
2022-11-28T09:08:12.506Z,929.5
2022-11-28T09:13:19.472Z,929.7
2022-11-28T09:23:56.721Z,929.7
2022-11-28T09:34:31.088Z,929.5
2022-11-28T09:40:14.521Z,929.7
2022-11-28T09:45:00.913Z,929.7
2022-11-28T10:00:56.677Z,929.7
2022-11-28T10:06:05.638Z,929.5
2022-11-28T10:27:27.622Z,929.5
2022-11-28T10:32:34.151Z,929.3
2022-11-28T10:37:51.009Z,929.3
2022-11-28T10:53:45.913Z,929.2
2022-11-28T10:59:01.377Z,929.2
2022-11-28T11:14:55.110Z,929.1
2022-11-28T11:36:11.659Z,928.9
2022-11-28T11:46:44.568Z,928.8
2022-11-28T12:08:02.593Z,928.7
2022-11-28T12:50:34.241Z,928.4
2022-11-28T13:06:32.969Z,928.4
2022-11-28T13:11:45.600Z,928.4
2022-11-28T13:22:21.871Z,928.4
2022-11-28T13:27:38.253Z,928.4
2022-11-28T13:32:50.603Z,928.4
2022-11-28T13:54:00.029Z,928.3
2022-11-28T14:04:39.329Z,928.3
2022-11-28T14:15:10.509Z,928.2
2022-11-28T14:31:13.564Z,928.2
2022-11-28T14:36:25.354Z,928.3
2022-11-28T14:47:03.836Z,928.3
2022-11-28T14:52:42.159Z,928.4
2022-11-28T15:08:13.062Z,928.4
2022-11-28T15:13:24.881Z,928.4
2022-11-28T15:18:40.290Z,928.4
2022-11-28T15:29:19.218Z,928.4
2022-11-28T15:34:32.649Z,928.4
2022-11-28T15:39:48.386Z,928.4
2022-11-28T15:45:03.474Z,928.4
2022-11-28T15:50:21.861Z,928.4
2022-11-28T15:55:27.809Z,928.4
2022-11-28T16:00:44.709Z,928.4
2022-11-28T16:06:03.139Z,928.4
2022-11-28T16:11:16.602Z,928.4
2022-11-28T16:16:27.835Z,928.4
2022-11-28T16:21:41.177Z,928.4
2022-11-28T16:32:13.956Z,928.6
2022-11-28T16:37:29.584Z,928.6
2022-11-28T16:42:45.119Z,928.6
2022-11-28T16:53:19.537Z,928.5
2022-11-28T17:14:32.360Z,928.7
2022-11-28T17:25:06.632Z,928.9
2022-11-28T17:30:23.942Z,928.8
2022-11-28T17:35:33.028Z,928.8
2022-11-28T17:40:44.776Z,929.1
2022-11-28T17:45:56.025Z,929.3
2022-11-28T17:51:06.683Z,929.1
2022-11-28T17:56:22.846Z,929.1
2022-11-28T18:01:37.912Z,929.1
2022-11-28T18:06:49.411Z,929.4
2022-11-28T18:12:05.566Z,929.4
2022-11-28T18:17:17.031Z,929.7
2022-11-28T18:22:27.800Z,929.3
2022-11-28T18:27:40.143Z,929.1
2022-11-28T18:32:59.618Z,929.1
2022-11-28T18:38:10.140Z,929.2
2022-11-28T18:43:26.234Z,929.2
2022-11-28T18:54:03.770Z,929.2
2022-11-28T18:59:14.742Z,929.5
2022-11-28T19:04:26.330Z,929.6
2022-11-28T19:09:41.608Z,929.6
2022-11-28T19:20:13.987Z,929.4
2022-11-28T19:25:25.667Z,929.8
2022-11-28T19:30:38.514Z,929.4
2022-11-28T19:35:47.584Z,929.7
2022-11-28T19:40:59.724Z,929.4
2022-11-28T19:46:09.987Z,929.2
2022-11-28T19:51:21.140Z,929.4
2022-11-28T19:56:36.408Z,929.4
2022-11-28T20:01:51.979Z,929.4
2022-11-28T20:07:03.781Z,929.7
2022-11-28T20:12:19.523Z,929.7
2022-11-28T20:17:35.245Z,929.7
2022-11-28T20:22:49.521Z,929.7
2022-11-28T20:28:00.470Z,929.7
2022-11-28T20:33:14.059Z,930.1
2022-11-28T20:38:25.582Z,930.3
2022-11-28T20:43:36.995Z,930.7
2022-11-28T20:48:54.292Z,930.7
2022-11-28T20:54:06.043Z,930.5
2022-11-28T20:59:22.277Z,930.5
2022-11-28T21:04:38.533Z,930.5
2022-11-28T21:09:48.142Z,930.7
2022-11-28T21:15:00.342Z,931.1
2022-11-28T21:20:11.707Z,931.5
2022-11-28T21:25:27.316Z,931.5
2022-11-28T21:30:35.728Z,931.2
2022-11-28T21:35:52.008Z,931.2
2022-11-28T21:41:03.392Z,931.4
2022-11-28T21:46:15.907Z,931.6
2022-11-28T21:51:27.788Z,931.7
2022-11-28T21:56:38.510Z,932
2022-11-28T22:01:50.596Z,932.3
2022-11-28T22:07:02.205Z,932.7
2022-11-28T22:12:12.031Z,933
2022-11-28T22:17:23.639Z,933.3
2022-11-28T22:22:36.046Z,935
2022-11-28T22:27:46.969Z,934.8
2022-11-28T22:32:55.722Z,934.2
2022-11-28T22:38:07.739Z,933.8
2022-11-28T22:43:19.883Z,933.5
2022-11-28T22:48:31.657Z,933.4
2022-11-28T23:04:25.511Z,933.7
2022-11-28T23:09:37.422Z,933.8
2022-11-28T23:20:09.584Z,934.1
2022-11-28T23:25:22.974Z,934.2
2022-11-28T23:30:34.355Z,934.5
2022-11-28T23:35:45.329Z,934.7
2022-11-28T23:46:18.600Z,934.8
2022-11-28T23:51:34.933Z,934.8
2022-11-28T23:56:44.835Z,934.7
